Time;durP1;ratioP1;P1;durP2;ratioP2;P2;SDS_P1;SDS_P2;PMS_P1;PMS_P2;Temp;Humidity;BMP_temperature;BMP_pressure;BME280_temperature;BME280_humidity;BME280_pressure;Samples;Min_cycle;Max_cycle;Signal;HPM_P1;HPM_P2
2022/12/02 00:00:52;;;;;;;69.13;22.80;;;;;;;1.36;100.00;102606.06;7396837;19;20889;-59
2022/12/02 00:03:24;;;;;;;76.73;25.90;;;;;;;1.29;100.00;102595.97;7395040;19;20425;-59
2022/12/02 00:05:57;;;;;;;70.23;22.17;;;;;;;1.32;100.00;102598.84;7391860;19;20427;-60
2022/12/02 00:08:30;;;;;;;73.53;23.50;;;;;;;1.38;100.00;102594.41;7390697;19;20388;-60
2022/12/02 00:11:02;;;;;;;72.93;24.03;;;;;;;1.26;100.00;102593.06;7393736;19;20393;-59
2022/12/02 00:13:40;;;;;;;86.63;27.60;;;;;;;1.12;100.00;102589.06;7390914;19;20933;-61
2022/12/02 00:16:17;;;;;;;84.87;27.97;;;;;;;1.32;100.00;102588.66;7391971;19;20954;-61
2022/12/02 00:18:47;;;;;;;66.43;21.13;;;;;;;1.14;100.00;102588.47;7390979;19;20411;-61
2022/12/02 00:21:19;;;;;;;76.70;23.57;;;;;;;1.05;100.00;102582.38;7397606;19;20390;-60
2022/12/02 00:23:49;;;;;;;65.83;21.53;;;;;;;1.04;100.00;102586.53;7391083;19;20453;-59
2022/12/02 00:26:18;;;;;;;66.83;21.27;;;;;;;0.94;100.00;102587.16;7390779;19;21362;-58
2022/12/02 00:28:48;;;;;;;63.97;20.20;;;;;;;0.90;100.00;102581.59;7391025;19;20414;-60
2022/12/02 00:31:17;;;;;;;80.27;23.77;;;;;;;1.15;100.00;102590.28;7393219;19;20398;-61
2022/12/02 00:33:47;;;;;;;69.30;20.40;;;;;;;1.04;100.00;102580.56;7390706;19;20490;-61
2022/12/02 00:36:19;;;;;;;82.70;23.90;;;;;;;1.07;100.00;102581.81;7390972;19;21049;-62
2022/12/02 00:38:48;;;;;;;64.83;21.63;;;;;;;1.22;100.00;102576.59;7390256;19;20407;-61
2022/12/02 00:41:18;;;;;;;69.87;21.43;;;;;;;0.84;100.00;102571.66;7393204;19;20394;-60
2022/12/02 00:46:35;;;;;;;63.20;21.33;;;;;;;1.33;100.00;102572.69;7391617;19;20411;-59
2022/12/02 00:49:07;;;;;;;64.27;20.17;;;;;;;1.20;100.00;102572.97;7392153;19;20405;-59
2022/12/02 00:51:40;;;;;;;56.83;20.20;;;;;;;0.96;100.00;102574.63;7392674;19;20404;-60
2022/12/02 00:54:10;;;;;;;65.03;19.77;;;;;;;1.20;100.00;102572.97;7390742;19;20402;-58
2022/12/02 00:56:40;;;;;;;67.60;20.43;;;;;;;1.12;100.00;102569.59;7390232;19;20773;-60
2022/12/02 00:59:09;;;;;;;61.20;20.80;;;;;;;0.97;100.00;102568.81;7390480;19;20798;-60
2022/12/02 01:01:39;;;;;;;68.37;21.10;;;;;;;0.76;100.00;102572.44;7392744;19;21217;-60
2022/12/02 01:04:09;;;;;;;66.03;19.50;;;;;;;0.75;100.00;102569.00;7389673;19;20739;-60
2022/12/02 01:06:41;;;;;;;81.93;21.10;;;;;;;1.17;100.00;102567.53;7390576;19;20438;-60
2022/12/02 01:09:11;;;;;;;60.30;20.10;;;;;;;1.20;100.00;102570.44;7390244;19;20445;-61
2022/12/02 01:11:41;;;;;;;66.93;20.27;;;;;;;1.28;100.00;102571.28;7392215;19;20381;-58
2022/12/02 01:14:10;;;;;;;77.53;22.83;;;;;;;1.17;100.00;102568.47;7389979;19;20419;-60
2022/12/02 01:16:40;;;;;;;66.53;22.87;;;;;;;0.97;100.00;102573.00;7391312;19;20775;-56
2022/12/02 01:19:09;;;;;;;63.87;21.97;;;;;;;1.06;100.00;102571.47;7390522;19;20414;-60
2022/12/02 01:21:41;;;;;;;67.33;22.20;;;;;;;1.03;100.00;102568.59;7392115;19;20407;-60
2022/12/02 01:24:11;;;;;;;70.70;21.33;;;;;;;0.87;100.00;102564.34;7389560;19;20401;-60
2022/12/02 01:26:40;;;;;;;64.23;22.03;;;;;;;0.88;100.00;102567.81;7390132;19;20446;-60
2022/12/02 01:29:10;;;;;;;73.40;23.50;;;;;;;1.10;100.00;102566.00;7390277;19;20443;-60
2022/12/02 01:31:39;;;;;;;73.10;22.70;;;;;;;1.29;100.00;102552.72;7391766;19;20382;-60
2022/12/02 01:34:09;;;;;;;73.87;22.50;;;;;;;1.38;100.00;102563.00;7390012;19;20411;-60
2022/12/02 01:36:38;;;;;;;61.90;22.97;;;;;;;1.38;100.00;102565.53;7390325;19;20435;-60
2022/12/02 01:39:10;;;;;;;71.87;22.60;;;;;;;1.28;100.00;102561.09;7390043;19;20739;-59
2022/12/02 01:41:39;;;;;;;70.03;23.73;;;;;;;1.48;100.00;102566.69;7391607;19;20396;-60
2022/12/02 01:44:09;;;;;;;70.83;23.97;;;;;;;1.50;100.00;102563.41;7388976;19;20403;-59
2022/12/02 01:46:39;;;;;;;82.87;26.10;;;;;;;0.97;100.00;102567.94;7389054;19;20403;-59
2022/12/02 01:49:09;;;;;;;69.83;23.00;;;;;;;0.87;100.00;102566.91;7388627;19;20414;-60
2022/12/02 01:51:38;;;;;;;71.23;24.77;;;;;;;1.04;100.00;102567.88;7391001;19;20388;-58
2022/12/02 01:54:11;;;;;;;70.03;24.87;;;;;;;0.71;100.00;102560.88;7389047;19;20378;-60
2022/12/02 01:56:41;;;;;;;70.70;24.43;;;;;;;0.98;100.00;102559.56;7389590;19;20445;-60
2022/12/02 01:59:11;;;;;;;73.00;23.70;;;;;;;0.79;100.00;102557.53;7388401;19;20786;-60
2022/12/02 02:01:41;;;;;;;70.77;26.53;;;;;;;0.48;100.00;102559.22;7390574;19;20404;-60
2022/12/02 02:04:11;;;;;;;77.40;26.70;;;;;;;0.42;100.00;102553.44;7388261;19;20770;-58
2022/12/02 02:06:43;;;;;;;61.73;23.03;;;;;;;0.57;100.00;102545.00;7390042;19;20419;-58
2022/12/02 02:09:15;;;;;;;76.67;26.73;;;;;;;1.09;100.00;102541.31;7388351;19;20411;-60
2022/12/02 02:11:45;;;;;;;73.83;25.63;;;;;;;0.77;100.00;102542.13;7388463;19;20977;-60
2022/12/02 02:14:14;;;;;;;65.50;24.37;;;;;;;0.99;100.00;102541.03;7391103;19;20407;-60
2022/12/02 02:16:44;;;;;;;64.83;23.27;;;;;;;0.91;100.00;102533.47;7391389;19;20916;-60
2022/12/02 02:19:15;;;;;;;70.77;24.20;;;;;;;0.88;100.00;102535.66;7389259;19;20780;-60
2022/12/02 02:21:48;;;;;;;65.77;22.77;;;;;;;0.66;100.00;102529.84;7391569;19;20744;-60
2022/12/02 02:24:20;;;;;;;79.03;26.10;;;;;;;0.83;100.00;102534.28;7391276;19;20789;-60
2022/12/02 02:26:49;;;;;;;71.80;25.90;;;;;;;0.67;100.00;102529.16;7391978;19;20392;-59
2022/12/02 02:29:19;;;;;;;72.37;26.20;;;;;;;0.97;100.00;102522.16;7390858;19;20983;-59
2022/12/02 02:31:49;;;;;;;79.77;27.97;;;;;;;0.84;100.00;102517.38;7391555;19;20397;-60
2022/12/02 02:34:18;;;;;;;67.03;23.27;;;;;;;1.11;100.00;102514.41;7389367;19;20411;-60
2022/12/02 02:36:48;;;;;;;68.40;24.10;;;;;;;1.02;100.00;102518.50;7391078;19;20391;-60
2022/12/02 02:39:20;;;;;;;77.50;26.43;;;;;;;1.26;100.00;102514.22;7389017;19;20415;-60
2022/12/02 02:41:49;;;;;;;148.03;56.30;;;;;;;2.01;100.00;102506.03;7390919;19;20418;-59
2022/12/02 02:44:19;;;;;;;98.77;39.27;;;;;;;2.13;100.00;102502.97;7388810;19;20423;-60
2022/12/02 02:46:54;;;;;;;76.63;28.80;;;;;;;1.84;100.00;102506.81;7391541;19;20424;-60
2022/12/02 02:49:23;;;;;;;110.70;41.57;;;;;;;1.82;100.00;102513.41;7388410;19;20895;-61
2022/12/02 02:51:53;;;;;;;66.80;24.60;;;;;;;1.78;100.00;102516.34;7390843;19;20419;-61
2022/12/02 02:54:25;;;;;;;69.50;26.53;;;;;;;1.15;100.00;102528.34;7389991;19;20498;-58
2022/12/02 02:56:55;;;;;;;71.93;26.87;;;;;;;0.93;100.00;102521.81;7390997;19;20402;-59
2022/12/02 02:59:24;;;;;;;74.87;28.53;;;;;;;0.73;100.00;102524.75;7388868;19;20445;-60
2022/12/02 03:01:53;;;;;;;79.00;29.10;;;;;;;0.85;100.00;102516.63;7390241;19;20467;-60
2022/12/02 03:04:24;;;;;;;74.20;28.47;;;;;;;0.77;100.00;102510.72;7388188;19;20944;-61
2022/12/02 03:06:53;;;;;;;71.93;26.50;;;;;;;0.68;100.00;102497.91;7390897;19;20410;-61
2022/12/02 03:09:26;;;;;;;76.90;27.37;;;;;;;0.51;100.00;102498.59;7388087;19;20754;-61
2022/12/02 03:11:56;;;;;;;76.43;27.67;;;;;;;0.39;100.00;102496.50;7390274;19;20385;-60
2022/12/02 03:14:26;;;;;;;77.87;29.90;;;;;;;0.48;100.00;102488.09;7391302;19;20410;-60
2022/12/02 03:16:56;;;;;;;86.70;30.90;;;;;;;0.21;100.00;102486.84;7397694;19;20744;-60
2022/12/02 03:19:25;;;;;;;74.17;25.87;;;;;;;0.38;100.00;102481.09;7394297;19;20438;-60
2022/12/02 03:21:55;;;;;;;78.57;27.07;;;;;;;0.45;100.00;102472.53;7397630;19;20932;-61
2022/12/02 03:24:27;;;;;;;76.47;27.17;;;;;;;0.35;100.00;102471.50;7391929;19;20406;-60
2022/12/02 03:26:56;;;;;;;71.57;26.70;;;;;;;0.18;100.00;102468.72;7398182;19;20379;-60
2022/12/02 03:29:26;;;;;;;68.10;26.03;;;;;;;0.02;100.00;102458.50;7395151;19;20774;-60
2022/12/02 03:31:55;;;;;;;89.03;31.80;;;;;;;-0.14;100.00;102452.59;7397400;19;20420;-61
2022/12/02 03:34:25;;;;;;;77.83;28.17;;;;;;;-0.16;100.00;102448.06;7395257;19;20423;-61
2022/12/02 03:36:55;;;;;;;73.67;26.27;;;;;;;-0.20;100.00;102438.34;7396501;19;20379;-59
2022/12/02 03:39:27;;;;;;;75.13;27.00;;;;;;;-0.18;100.00;102435.25;7394756;19;20423;-60
2022/12/02 03:41:56;;;;;;;78.60;28.55;;;;;;;-0.25;100.00;102429.31;7397106;19;20380;-61
2022/12/02 03:44:26;;;;;;;84.35;28.80;;;;;;;-0.38;100.00;102424.47;7394554;19;20194;-60
2022/12/02 03:46:55;;;;;;;81.60;28.17;;;;;;;-0.37;100.00;102416.16;7397522;19;20127;-59
2022/12/02 03:49:25;;;;;;;85.63;26.87;;;;;;;-0.46;100.00;102405.88;7394570;19;20193;-58
2022/12/02 03:51:54;;;;;;;75.93;28.23;;;;;;;-0.43;100.00;102404.59;7396932;19;20412;-61
2022/12/02 03:54:26;;;;;;;77.70;25.90;;;;;;;-0.34;100.00;102392.03;7394401;19;20198;-61
2022/12/02 03:56:56;;;;;;;82.03;26.58;;;;;;;-0.32;100.00;102384.56;7396597;19;20158;-60
2022/12/02 03:59:28;;;;;;;81.00;29.48;;;;;;;-0.36;100.00;102388.41;7394765;19;20552;-61
2022/12/02 04:01:57;;;;;;;90.53;30.10;;;;;;;-0.34;100.00;102378.44;7396273;19;20131;-62
2022/12/02 04:04:27;;;;;;;72.07;27.15;;;;;;;-0.47;100.00;102369.44;7393678;19;20194;-60
2022/12/02 04:06:56;;;;;;;81.55;29.15;;;;;;;-0.45;100.00;102372.16;7397261;19;20131;-61
2022/12/02 04:09:28;;;;;;;71.50;24.15;;;;;;;-0.45;100.00;102359.47;7394286;19;20190;-61
2022/12/02 04:11:57;;;;;;;77.95;25.40;;;;;;;-0.34;100.00;102355.59;7396443;19;20156;-62
2022/12/02 04:14:27;;;;;;;85.05;27.63;;;;;;;-0.30;100.00;102345.97;7393937;19;20209;-62
2022/12/02 04:16:56;;;;;;;77.40;28.10;;;;;;;-0.34;100.00;102348.91;7396527;19;20128;-62
2022/12/02 04:19:26;;;;;;;74.07;26.02;;;;;;;-0.33;100.00;102342.19;7394889;19;20182;-61
2022/12/02 04:21:55;;;;;;;83.90;28.15;;;;;;;-0.33;100.00;102335.50;7395769;19;20139;-61
2022/12/02 04:24:27;;;;;;;73.32;27.50;;;;;;;-0.33;100.00;102337.09;7392452;19;20684;-60
2022/12/02 04:26:57;;;;;;;72.15;26.05;;;;;;;-0.28;100.00;102336.00;7396831;19;20138;-61
2022/12/02 04:29:26;;;;;;;89.60;28.35;;;;;;;-0.37;100.00;102329.91;7393732;19;20193;-59
2022/12/02 04:31:56;;;;;;;92.90;31.65;;;;;;;-0.43;100.00;102323.41;7396017;19;20593;-60
2022/12/02 04:34:26;;;;;;;91.85;27.88;;;;;;;-0.43;100.00;102328.50;7393774;19;20198;-61
2022/12/02 04:36:55;;;;;;;84.57;27.67;;;;;;;-0.44;100.00;102326.69;7395700;19;20138;-62
2022/12/02 04:39:27;;;;;;;81.20;27.30;;;;;;;-0.50;100.00;102326.00;7393535;19;20258;-61
2022/12/02 04:41:56;;;;;;;77.60;27.95;;;;;;;-0.46;100.00;102325.59;7395477;19;20637;-61
2022/12/02 04:44:26;;;;;;;79.20;27.52;;;;;;;-0.42;100.00;102325.22;7392920;19;20220;-61
2022/12/02 04:46:55;;;;;;;88.85;28.42;;;;;;;-0.33;100.00;102322.81;7395500;19;20586;-56
2022/12/02 04:49:25;;;;;;;72.45;27.55;;;;;;;-0.36;100.00;102319.91;7392313;19;20190;-60
2022/12/02 04:51:54;;;;;;;79.40;28.33;;;;;;;-0.44;100.00;102319.09;7395060;19;20597;-60
2022/12/02 04:54:24;;;;;;;95.20;32.05;;;;;;;-0.54;100.00;102316.25;7392018;19;20249;-60
2022/12/02 04:56:56;;;;;;;93.82;27.02;;;;;;;-0.46;100.00;102318.00;7395177;19;20157;-59
2022/12/02 04:59:25;;;;;;;98.45;27.10;;;;;;;-0.44;100.00;102315.63;7392256;19;20190;-59
2022/12/02 05:01:55;;;;;;;94.32;30.48;;;;;;;-0.46;100.00;102310.38;7395183;19;20150;-60
2022/12/02 05:04:24;;;;;;;96.32;29.20;;;;;;;-0.39;100.00;102316.13;7391297;19;20213;-60
2022/12/02 05:06:54;;;;;;;85.07;28.92;;;;;;;-0.44;100.00;102308.03;7394883;19;20179;-59
2022/12/02 05:09:23;;;;;;;87.30;27.83;;;;;;;-0.54;100.00;102313.69;7392213;19;20198;-57
2022/12/02 05:11:55;;;;;;;89.65;26.48;;;;;;;-0.54;100.00;102316.25;7393772;19;20137;-60
2022/12/02 05:14:25;;;;;;;72.65;25.50;;;;;;;-0.56;100.00;102310.09;7391674;19;20197;-60
2022/12/02 05:16:54;;;;;;;82.07;27.92;;;;;;;-0.47;100.00;102310.22;7394506;19;20149;-60
2022/12/02 05:19:24;;;;;;;98.20;29.65;;;;;;;-0.53;100.00;102323.13;7390871;19;20576;-60
2022/12/02 05:21:53;;;;;;;82.75;26.65;;;;;;;-0.52;100.00;102319.84;7393575;19;20565;-60
2022/12/02 05:24:23;;;;;;;98.10;29.33;;;;;;;-0.52;100.00;102319.84;7391095;19;20557;-61
2022/12/02 05:26:52;;;;;;;86.57;29.35;;;;;;;-0.43;100.00;102313.28;7394363;19;20635;-61
2022/12/02 05:29:24;;;;;;;85.03;27.80;;;;;;;-0.38;100.00;102318.84;7391621;19;20198;-61
2022/12/02 05:31:54;;;;;;;86.43;28.80;;;;;;;-0.46;100.00;102315.44;7393990;19;20131;-61
2022/12/02 05:34:24;;;;;;;87.25;28.42;;;;;;;-0.48;100.00;102322.00;7390636;19;20203;-61
2022/12/02 05:36:53;;;;;;;104.22;34.35;;;;;;;-0.48;100.00;102319.47;7391324;19;20158;-61
2022/12/02 05:39:22;;;;;;;78.90;27.90;;;;;;;-0.43;100.00;102320.88;7390493;19;20198;-61
2022/12/02 05:41:52;;;;;;;87.95;30.92;;;;;;;-0.50;100.00;102328.53;7393335;19;20142;-61
2022/12/02 05:44:28;;;;;;;80.85;28.30;;;;;;;-0.48;100.00;102327.06;7390630;19;20202;-60
2022/12/02 05:47:03;;;;;;;84.25;28.38;;;;;;;-0.48;100.00;102329.59;7393509;19;20145;-61
2022/12/02 05:49:32;;;;;;;72.00;26.27;;;;;;;-0.48;100.00;102316.94;7390565;19;20190;-61
2022/12/02 05:52:03;;;;;;;72.97;26.40;;;;;;;-0.45;100.00;102319.78;7392898;19;20162;-61
2022/12/02 05:54:33;;;;;;;76.35;26.40;;;;;;;-0.39;100.00;102321.22;7390563;19;20194;-61
2022/12/02 05:57:05;;;;;;;70.97;25.95;;;;;;;-0.42;100.00;102326.84;7393648;19;20593;-61
2022/12/02 05:59:37;;;;;;;74.40;26.23;;;;;;;-0.44;100.00;102328.31;7390139;19;20209;-61
2022/12/02 06:02:16;;;;;;;72.47;26.90;;;;;;;-0.48;100.00;102331.22;7392226;19;20135;-60
2022/12/02 06:04:45;;;;;;;69.00;26.25;;;;;;;-0.49;100.00;102334.50;7389772;19;20217;-60
2022/12/02 06:07:15;;;;;;;82.22;27.05;;;;;;;-0.46;100.00;102334.84;7393230;19;20127;-61
2022/12/02 06:09:45;;;;;;;69.93;25.60;;;;;;;-0.52;100.00;102335.06;7390254;19;20217;-60
2022/12/02 06:12:17;;;;;;;81.72;27.23;;;;;;;-0.48;100.00;102344.81;7392177;19;20628;-61
2022/12/02 06:14:52;;;;;;;71.07;24.48;;;;;;;-0.36;100.00;102344.41;7390274;19;20664;-61
2022/12/02 06:17:23;;;;;;;68.28;24.98;;;;;;;-0.36;100.00;102346.94;7394240;19;20130;-61
2022/12/02 06:19:55;;;;;;;76.13;27.80;;;;;;;-0.44;100.00;102346.97;7391281;19;20194;-61
2022/12/02 06:22:28;;;;;;;75.13;26.17;;;;;;;-0.44;100.00;102343.53;7392208;19;20525;-60
2022/12/02 06:24:59;;;;;;;77.10;26.92;;;;;;;-0.47;100.00;102345.75;7390145;19;20551;-61
2022/12/02 06:27:30;;;;;;;69.38;24.63;;;;;;;-0.42;100.00;102349.66;7392823;19;20135;-60
2022/12/02 06:30:06;;;;;;;68.90;23.65;;;;;;;-0.43;100.00;102348.78;7390386;19;20205;-61
2022/12/02 06:32:38;;;;;;;71.00;24.50;;;;;;;-0.37;100.00;102352.75;7392039;19;20165;-62
2022/12/02 06:35:21;;;;;;;64.95;24.38;;;;;;;-0.34;100.00;102358.13;7388960;19;20216;-62
2022/12/02 06:37:51;;;;;;;79.38;25.33;;;;;;;-0.35;100.00;102366.50;7392892;19;20123;-61
2022/12/02 06:40:26;;;;;;;67.47;23.80;;;;;;;-0.44;100.00;102358.75;7389600;19;20566;-59
2022/12/02 06:42:59;;;;;;;73.43;24.75;;;;;;;-0.41;100.00;102366.72;7390967;19;20663;-61
2022/12/02 06:45:32;;;;;;;80.63;26.20;;;;;;;-0.42;100.00;102359.81;7389048;19;20197;-61
2022/12/02 06:48:07;;;;;;;76.07;26.33;;;;;;;-0.47;100.00;102364.38;7391995;19;20144;-60
2022/12/02 06:50:39;;;;;;;67.80;23.67;;;;;;;0.16;100.00;102354.31;7388926;19;20227;-61
2022/12/02 06:53:30;;;;;;;102.28;37.20;;;;;;;0.78;100.00;102347.34;7390823;19;20127;-61
2022/12/02 06:56:03;;;;;;;156.00;61.25;;;;;;;1.12;100.00;102340.75;7389493;19;20225;-61
2022/12/02 06:58:37;;;;;;;104.03;36.90;;;;;;;1.63;100.00;102342.59;7389160;19;20149;-60
2022/12/02 07:01:22;;;;;;;82.43;30.40;;;;;;;1.31;100.00;102357.94;7391277;19;20391;-62
2022/12/02 07:04:03;;;;;;;79.57;29.77;;;;;;;1.11;100.00;102379.63;7387651;19;20420;-60
2022/12/02 07:06:33;;;;;;;70.00;25.30;;;;;;;0.71;100.00;102393.19;7386077;19;20442;-61
2022/12/02 07:09:04;;;;;;;61.63;24.17;;;;;;;0.30;100.00;102406.59;7388520;19;20415;-60
2022/12/02 07:11:52;;;;;;;61.70;22.87;;;;;;;0.19;100.00;102422.28;7393390;19;20900;-61
2022/12/02 07:14:35;;;;;;;61.10;23.80;;;;;;;0.05;100.00;102426.75;7388698;19;20395;-61
2022/12/02 07:17:17;;;;;;;68.60;23.90;;;;;;;-0.15;100.00;102422.00;7390883;19;20383;-61
2022/12/02 07:19:50;;;;;;;59.95;22.02;;;;;;;-0.22;100.00;102425.47;7387253;19;21006;-61
2022/12/02 07:22:21;;;;;;;70.47;23.30;;;;;;;-0.21;100.00;102424.75;7390498;19;20150;-62
2022/12/02 07:24:57;;;;;;;67.47;25.10;;;;;;;-0.16;100.00;102428.69;7387557;19;20962;-57
2022/12/02 07:27:29;;;;;;;64.35;22.98;;;;;;;-0.20;100.00;102429.06;7390798;19;20123;-62
2022/12/02 07:29:59;;;;;;;57.92;22.45;;;;;;;-0.20;100.00;102434.16;7388463;19;20190;-61
2022/12/02 07:32:31;;;;;;;60.42;23.08;;;;;;;-0.16;100.00;102432.84;7390000;19;20131;-63
2022/12/02 07:35:00;;;;;;;62.97;23.30;;;;;;;-0.21;100.00;102429.81;7387579;19;20660;-62
2022/12/02 07:37:29;;;;;;;67.70;23.42;;;;;;;-0.26;100.00;102432.56;7390175;19;20502;-62
2022/12/02 07:39:59;;;;;;;65.40;22.55;;;;;;;-0.23;100.00;102428.75;7386227;19;20199;-61
2022/12/02 07:42:28;;;;;;;63.03;22.23;;;;;;;-0.30;100.00;102434.75;7389469;19;20134;-61
2022/12/02 07:44:58;;;;;;;65.90;21.63;;;;;;;-0.24;100.00;102429.47;7386996;19;20258;-62
2022/12/02 07:47:27;;;;;;;62.15;23.00;;;;;;;-0.17;100.00;102428.53;7390480;19;20130;-62
2022/12/02 07:49:59;;;;;;;55.85;21.45;;;;;;;-0.12;100.00;102434.13;7384582;19;20191;-62
2022/12/02 07:52:29;;;;;;;58.65;21.88;;;;;;;-0.12;100.00;102429.06;7389797;19;20127;-62
2022/12/02 07:55:00;;;;;;;62.20;22.55;;;;;;;-0.15;100.00;102430.50;7386548;19;20201;-61
2022/12/02 07:57:30;;;;;;;59.10;23.00;;;;;;;-0.14;100.00;102427.22;7390121;19;20134;-61
2022/12/02 08:00:03;;;;;;;75.57;23.95;;;;;;;-0.19;100.00;102443.59;7388441;19;20186;-61
2022/12/02 08:02:33;;;;;;;64.18;24.50;;;;;;;-0.27;100.00;102439.28;7396254;19;20134;-62
2022/12/02 08:05:06;;;;;;;58.33;21.85;;;;;;;-0.29;100.00;102435.66;7393698;19;20198;-62
2022/12/02 08:07:35;;;;;;;58.70;22.13;;;;;;;-0.24;100.00;102434.56;7397285;19;20787;-61
2022/12/02 08:10:06;;;;;;;115.68;39.22;;;;;;;-0.04;100.00;102433.34;7394353;19;20197;-60
2022/12/02 08:12:35;;;;;;;80.75;28.50;;;;;;;0.03;100.00;102440.00;7396393;19;20607;-62
2022/12/02 08:15:05;;;;;;;60.42;23.10;;;;;;;-0.09;100.00;102437.91;7392992;19;20202;-62
2022/12/02 08:17:35;;;;;;;62.33;22.33;;;;;;;-0.13;100.00;102428.13;7396779;19;20276;-61
2022/12/02 08:20:10;;;;;;;66.22;24.00;;;;;;;-0.14;100.00;102427.22;7393158;19;20187;-61
2022/12/02 08:22:39;;;;;;;67.80;24.15;;;;;;;-0.18;100.00;102420.03;7395929;19;20138;-62
2022/12/02 08:25:10;;;;;;;60.80;23.07;;;;;;;-0.15;100.00;102422.88;7396691;19;20214;-62
2022/12/02 08:27:39;;;;;;;69.63;25.45;;;;;;;-0.08;100.00;102415.97;7396172;19;20419;-61
2022/12/02 08:30:16;;;;;;;72.63;23.60;;;;;;;-0.06;100.00;102424.66;7393441;19;20190;-63
2022/12/02 08:32:45;;;;;;;65.93;23.07;;;;;;;0.03;100.00;102425.69;7395852;19;20131;-61
2022/12/02 08:35:17;;;;;;;62.00;22.95;;;;;;;-0.01;100.00;102433.66;7392618;19;20441;-59
2022/12/02 08:37:47;;;;;;;68.57;25.23;;;;;;;0.04;100.00;102442.72;7396384;19;20340;-62
2022/12/02 08:40:16;;;;;;;68.97;23.57;;;;;;;0.05;100.00;102441.97;7391660;19;20431;-62
2022/12/02 08:42:46;;;;;;;58.93;22.67;;;;;;;0.03;100.00;102445.97;7395527;19;20467;-59
2022/12/02 08:45:16;;;;;;;64.70;23.58;;;;;;;0.12;100.00;102447.00;7392551;19;20453;-61
2022/12/02 08:47:45;;;;;;;104.63;37.80;;;;;;;0.28;100.00;102451.25;7395494;19;20123;-60
2022/12/02 08:50:17;;;;;;;69.63;25.35;;;;;;;0.31;100.00;102456.66;7393122;19;20426;-62
2022/12/02 08:52:47;;;;;;;84.27;28.87;;;;;;;0.32;100.00;102455.94;7395139;19;20123;-61
2022/12/02 08:55:16;;;;;;;65.00;24.67;;;;;;;0.22;100.00;102454.03;7391961;19;20422;-61
2022/12/02 08:57:46;;;;;;;69.47;25.00;;;;;;;0.21;100.00;102458.91;7395638;19;20392;-61
2022/12/02 09:00:17;;;;;;;72.27;26.70;;;;;;;0.28;100.00;102452.88;7391899;19;20445;-61
2022/12/02 09:02:48;;;;;;;67.33;26.10;;;;;;;0.26;100.00;102457.81;7394100;19;20400;-60
2022/12/02 09:05:20;;;;;;;68.85;23.85;;;;;;;0.32;100.00;102462.63;7390163;19;20856;-61
2022/12/02 09:07:49;;;;;;;65.13;24.25;;;;;;;0.34;100.00;102469.69;7399718;19;20139;-59
2022/12/02 09:10:19;;;;;;;66.33;27.87;;;;;;;0.37;100.00;102470.03;7392721;19;20190;-62
2022/12/02 09:12:49;;;;;;;59.20;22.57;;;;;;;0.40;100.00;102475.47;7398172;19;20392;-61
2022/12/02 09:17:53;;;;;;;60.33;23.40;;;;;;;0.31;100.00;102481.16;7253602;19;2901822;-62
2022/12/02 09:20:22;;;;;;;64.00;23.63;;;;;;;0.33;100.00;102478.06;7425332;19;20507;-60
2022/12/02 09:22:52;;;;;;;61.73;23.80;;;;;;;0.36;100.00;102488.53;7427620;19;20378;-62
2022/12/02 09:25:21;;;;;;;68.27;24.20;;;;;;;0.30;100.00;102484.44;7428736;19;20760;-63
2022/12/02 09:27:51;;;;;;;64.27;22.63;;;;;;;0.28;100.00;102485.88;7422693;19;20455;-62
2022/12/02 09:30:20;;;;;;;80.97;29.07;;;;;;;0.32;100.00;102491.50;7431315;19;20378;-62
2022/12/02 09:32:53;;;;;;;83.83;29.33;;;;;;;0.52;100.00;102492.78;7421377;19;20540;-60
2022/12/02 09:35:22;;;;;;;70.97;24.20;;;;;;;0.48;100.00;102495.72;7425426;19;20426;-62
2022/12/02 09:37:51;;;;;;;64.63;25.90;;;;;;;0.38;100.00;102501.41;7427142;19;20760;-61
2022/12/02 09:40:21;;;;;;;68.70;25.50;;;;;;;0.36;100.00;102497.81;7427278;19;20379;-63
2022/12/02 09:42:52;;;;;;;74.47;25.87;;;;;;;0.34;100.00;102500.19;7422908;19;20425;-63
2022/12/02 09:45:21;;;;;;;79.87;26.07;;;;;;;0.39;100.00;102504.13;7426546;19;20389;-63
2022/12/02 09:47:54;;;;;;;66.27;25.20;;;;;;;0.35;100.00;102501.97;7423257;19;20421;-63
2022/12/02 09:50:24;;;;;;;68.35;23.55;;;;;;;0.39;100.00;102505.75;7427110;19;20394;-63
2022/12/02 09:52:53;;;;;;;58.73;22.80;;;;;;;0.35;100.00;102501.97;7426308;19;20189;-63
2022/12/02 09:55:24;;;;;;;69.73;24.07;;;;;;;0.28;100.00;102498.56;7429420;19;20391;-64
2022/12/02 09:57:53;;;;;;;53.60;21.00;;;;;;;0.25;100.00;102500.06;7422794;19;20415;-63
2022/12/02 10:00:24;;;;;;;64.65;24.90;;;;;;;0.28;100.00;102509.66;7426705;19;20717;-63
2022/12/02 10:02:56;;;;;;;57.07;21.87;;;;;;;0.37;100.00;102513.19;7423488;19;20542;-63
2022/12/02 10:05:27;;;;;;;61.53;22.07;;;;;;;0.36;100.00;102511.41;7425690;19;20387;-64
2022/12/02 10:07:58;;;;;;;66.20;23.60;;;;;;;0.37;100.00;102510.66;7423091;19;20774;-63
2022/12/02 10:10:29;;;;;;;70.60;23.63;;;;;;;0.32;100.00;102509.28;7430047;19;20366;-63
2022/12/02 10:12:59;;;;;;;70.73;26.10;;;;;;;0.35;100.00;102517.22;7423516;19;20406;-63
2022/12/02 10:15:36;;;;;;;72.17;25.17;;;;;;;0.34;100.00;102507.78;7424300;19;20394;-63
2022/12/02 10:18:11;;;;;;;72.68;25.30;;;;;;;0.42;100.00;102507.75;7416010;19;20446;-64
2022/12/02 10:20:41;;;;;;;66.03;23.20;;;;;;;0.43;100.00;102504.47;7425538;19;20122;-62
2022/12/02 10:23:13;;;;;;;64.80;24.30;;;;;;;0.42;100.00;102507.75;7422665;19;20394;-63
2022/12/02 10:25:45;;;;;;;66.07;25.20;;;;;;;0.44;100.00;102509.72;7424873;19;20443;-63
2022/12/02 10:28:23;;;;;;;69.80;26.60;;;;;;;0.52;100.00;102508.03;7403180;19;20417;-63
2022/12/02 10:30:55;;;;;;;68.30;25.80;;;;;;;0.52;100.00;102508.03;7394805;19;20402;-63
2022/12/02 10:33:29;;;;;;;74.90;26.50;;;;;;;0.49;100.00;102506.06;7393375;19;20424;-61
2022/12/02 10:36:00;;;;;;;76.63;27.17;;;;;;;0.52;100.00;102502.94;7392092;19;20408;-63
2022/12/02 10:38:38;;;;;;;69.57;25.67;;;;;;;0.67;100.00;102507.16;7395620;19;20751;-62
2022/12/02 10:41:16;;;;;;;76.13;27.70;;;;;;;0.66;100.00;102510.44;7394154;19;20761;-63
2022/12/02 10:43:47;;;;;;;83.93;29.93;;;;;;;0.70;100.00;102511.69;7396006;19;20497;-63
2022/12/02 10:46:17;;;;;;;67.97;27.75;;;;;;;0.74;100.00;102507.84;7392971;19;20423;-64
2022/12/02 10:48:49;;;;;;;64.17;26.83;;;;;;;0.70;100.00;102498.97;7396581;19;20153;-63
2022/12/02 10:51:20;;;;;;;77.27;25.97;;;;;;;0.74;100.00;102508.75;7393205;19;20456;-64
2022/12/02 10:53:51;;;;;;;90.97;32.17;;;;;;;0.73;100.00;102506.97;7395928;19;20414;-64
2022/12/02 10:56:23;;;;;;;82.13;27.70;;;;;;;0.74;100.00;102513.84;7392466;19;20419;-62
2022/12/02 10:58:54;;;;;;;73.90;26.27;;;;;;;0.69;100.00;102508.97;7395445;19;20379;-62
2022/12/02 11:01:24;;;;;;;81.90;29.80;;;;;;;0.74;100.00;102507.84;7391860;19;20424;-63
2022/12/02 11:03:56;;;;;;;70.70;24.83;;;;;;;0.67;100.00;102516.44;7395320;19;20442;-63
2022/12/02 11:06:27;;;;;;;69.27;23.73;;;;;;;0.67;100.00;102512.25;7391495;19;20415;-64
2022/12/02 11:08:58;;;;;;;63.10;25.97;;;;;;;0.67;100.00;102507.16;7395600;19;20398;-64
2022/12/02 11:11:48;;;;;;;136.70;47.53;;;;;;;0.71;100.00;102510.06;7392694;19;20490;-63
2022/12/02 11:14:49;;;;;;;311.23;108.93;;;;;;;0.73;100.00;102516.19;7395694;19;20372;-64
2022/12/02 11:17:57;;;;;;;96.40;33.20;;;;;;;0.64;100.00;102519.56;7388029;19;20426;-61
2022/12/02 11:20:40;;;;;;;66.63;22.93;;;;;;;0.63;100.00;102515.22;7394691;19;20381;-63
2022/12/02 11:23:25;;;;;;;75.07;26.40;;;;;;;0.70;100.00;102510.78;7391936;19;20406;-64
2022/12/02 11:26:11;;;;;;;72.77;26.50;;;;;;;0.73;100.00;102509.50;7394325;19;20912;-62
2022/12/02 11:29:15;;;;;;;63.07;24.97;;;;;;;0.75;100.00;102509.63;7391421;19;20431;-62
2022/12/02 11:32:01;;;;;;;63.43;25.87;;;;;;;0.74;100.00;102505.28;7390315;19;20403;-63